createdAt,value
2022-11-05T00:00:42.415Z,98970.91
2022-11-05T00:03:45.634Z,98979.56
2022-11-05T00:06:49.113Z,98988.97
2022-11-05T00:09:35.113Z,98986.41
2022-11-05T00:12:38.366Z,98993.47
2022-11-05T00:15:41.737Z,98997.22
2022-11-05T00:18:26.738Z,98997.78
2022-11-05T00:21:30.391Z,98996.03
2022-11-05T00:24:35.567Z,99004.88
2022-11-05T00:27:20.478Z,99018.03
2022-11-05T00:30:06.972Z,99017.03
2022-11-05T00:32:52.930Z,99001.34
2022-11-05T00:35:37.946Z,99003.09
2022-11-05T00:38:23.517Z,98994.66
2022-11-05T00:41:08.474Z,98990.53
2022-11-05T00:44:12.068Z,98980.31
2022-11-05T00:47:16.991Z,98967.19
2022-11-05T00:50:01.703Z,98958.91
2022-11-05T00:52:55.205Z,98963.03
2022-11-05T00:55:42.628Z,98960.88
2022-11-05T00:58:28.542Z,98952.59
2022-11-05T01:01:14.375Z,98956.94
2022-11-05T01:03:59.002Z,98955.16
2022-11-05T01:06:44.389Z,98963.44
2022-11-05T01:09:28.944Z,98961.47
2022-11-05T01:12:14.011Z,98968.91
2022-11-05T01:15:00.285Z,98966.34
2022-11-05T01:17:45.058Z,98965.59
2022-11-05T01:20:30.475Z,98978.94
2022-11-05T01:23:16.470Z,98980.28
2022-11-05T01:26:01.530Z,98985.81
2022-11-05T01:28:51.306Z,98982.47
2022-11-05T01:31:36.025Z,98983.63
2022-11-05T01:34:21.008Z,98973.25
2022-11-05T01:37:06.047Z,98969.13
2022-11-05T01:39:51.032Z,98981.66
2022-11-05T01:42:35.983Z,98980.50
2022-11-05T01:45:26.829Z,98984.25
2022-11-05T01:48:32.545Z,98986.00
2022-11-05T01:51:21.195Z,98978.34
2022-11-05T01:54:10.831Z,98982.50
2022-11-05T01:57:00.976Z,98977.19
2022-11-05T01:59:54.015Z,98960.09
2022-11-05T02:02:39.403Z,98962.66
2022-11-05T02:05:28.059Z,98975.22
2022-11-05T02:08:24.337Z,98968.16
2022-11-05T02:11:12.939Z,98983.28
2022-11-05T02:13:57.658Z,98982.31
2022-11-05T02:16:54.898Z,98987.00
2022-11-05T02:19:42.856Z,98987.63
2022-11-05T02:22:58.452Z,98973.84
2022-11-05T02:26:04.940Z,98974.25
2022-11-05T02:28:49.478Z,98974.06
2022-11-05T02:32:03.351Z,98980.53
2022-11-05T02:34:58.255Z,98973.66
2022-11-05T02:37:53.756Z,98968.78
2022-11-05T02:40:53.906Z,98962.28
2022-11-05T02:43:44.641Z,98964.66
2022-11-05T02:46:53.061Z,98949.72
2022-11-05T02:49:37.836Z,98960.13
2022-11-05T02:52:33.465Z,98962.47
2022-11-05T02:55:39.684Z,98956.63
2022-11-05T02:58:28.512Z,98952.47
2022-11-05T03:01:13.825Z,98962.09
2022-11-05T03:04:05.794Z,98968.75
2022-11-05T03:06:57.088Z,98983.13
2022-11-05T03:09:49.367Z,98981.34
2022-11-05T03:12:57.935Z,98990.38
2022-11-05T03:15:54.973Z,98986.66
2022-11-05T03:18:45.576Z,98989.59
2022-11-05T03:21:45.837Z,98987.03
2022-11-05T03:24:33.870Z,98981.53
2022-11-05T03:27:26.698Z,98980.75
2022-11-05T03:30:13.354Z,98982.53
2022-11-05T03:33:02.767Z,98977.22
2022-11-05T03:35:55.761Z,98976.25
2022-11-05T03:38:43.511Z,98972.13
2022-11-05T03:41:29.374Z,98978.00
2022-11-05T03:44:21.381Z,98984.50
2022-11-05T03:47:12.203Z,98989.41
2022-11-05T03:50:12.430Z,98999.44
2022-11-05T03:53:03.828Z,98996.50
2022-11-05T03:56:23.210Z,99004.16
2022-11-05T03:59:10.237Z,99012.56
2022-11-05T04:01:55.787Z,99007.69
2022-11-05T04:04:41.144Z,99010.03
2022-11-05T04:07:44.403Z,99014.16
2022-11-05T04:10:47.297Z,99011.81
2022-11-05T04:13:32.876Z,99012.56
2022-11-05T04:16:36.381Z,99012.00
2022-11-05T04:19:41.431Z,99017.91
2022-11-05T04:22:47.042Z,99020.84
2022-11-05T04:25:32.151Z,99025.56
2022-11-05T04:28:17.217Z,99025.56
2022-11-05T04:31:01.777Z,99010.44
2022-11-05T04:33:46.660Z,99009.44
2022-11-05T04:36:31.646Z,99016.31
2022-11-05T04:39:17.625Z,99012.78
2022-11-05T04:42:02.600Z,99006.88
2022-11-05T04:44:47.643Z,99001.97
2022-11-05T04:47:32.585Z,99002.16
2022-11-05T04:50:17.783Z,99011.00
2022-11-05T04:53:02.766Z,99015.94
2022-11-05T04:55:47.528Z,99011.00
2022-11-05T04:58:32.313Z,99010.81
2022-11-05T05:01:18.597Z,99014.72
2022-11-05T05:04:03.418Z,99017.50
2022-11-05T05:06:48.282Z,99027.50
2022-11-05T05:09:33.307Z,99035.53
2022-11-05T05:12:18.274Z,99039.09
2022-11-05T05:15:04.532Z,99035.78
2022-11-05T05:17:51.193Z,99034.19
2022-11-05T05:20:54.403Z,99031.03
2022-11-05T05:23:39.195Z,99043.22
2022-11-05T05:26:23.809Z,99050.13
2022-11-05T05:29:10.240Z,99052.84
2022-11-05T05:31:54.793Z,99061.50
2022-11-05T05:34:39.930Z,99060.34
2022-11-05T05:37:24.849Z,99051.28
2022-11-05T05:40:10.569Z,99055.03
2022-11-05T05:42:55.560Z,99060.75
2022-11-05T05:45:40.453Z,99057.59
2022-11-05T05:48:25.471Z,99060.75
2022-11-05T05:51:11.260Z,99073.13
2022-11-05T05:53:56.267Z,99070.94
2022-11-05T05:56:45.147Z,99073.13
2022-11-05T05:59:29.919Z,99070.38
2022-11-05T06:02:15.204Z,99064.09
2022-11-05T06:04:59.852Z,99069.41
2022-11-05T06:07:44.916Z,99077.44
2022-11-05T06:10:29.889Z,99082.00
2022-11-05T06:13:14.785Z,99080.81
2022-11-05T06:16:09.467Z,99085.72
2022-11-05T06:18:54.079Z,99087.28
2022-11-05T06:21:38.969Z,99089.84
2022-11-05T06:24:24.122Z,99093.56
2022-11-05T06:27:08.933Z,99079.41
2022-11-05T06:29:54.028Z,99074.69
2022-11-05T06:32:38.947Z,99074.28
2022-11-05T06:35:23.949Z,99083.13
2022-11-05T06:38:08.834Z,99089.00
2022-11-05T06:40:53.382Z,99082.72
2022-11-05T06:43:38.441Z,99082.31
2022-11-05T06:46:23.166Z,99086.28
2022-11-05T06:49:08.216Z,99086.84
2022-11-05T06:51:53.235Z,99075.44
2022-11-05T06:54:38.562Z,99071.47
2022-11-05T06:57:23.280Z,99076.00
2022-11-05T07:00:08.697Z,99075.00
2022-11-05T07:02:55.260Z,99087.78
2022-11-05T07:05:45.774Z,99090.97
2022-11-05T07:08:32.131Z,99103.94
2022-11-05T07:11:17.696Z,99105.91
2022-11-05T07:14:02.355Z,99111.44
2022-11-05T07:16:47.276Z,99109.84
2022-11-05T07:19:32.344Z,99119.09
2022-11-05T07:22:17.192Z,99113.78
2022-11-05T07:25:01.753Z,99116.72
2022-11-05T07:27:46.394Z,99107.25
2022-11-05T07:30:32.923Z,99111.56
2022-11-05T07:33:17.428Z,99112.53
2022-11-05T07:36:02.616Z,99117.66
2022-11-05T07:38:47.595Z,99102.31
2022-11-05T07:41:32.665Z,99100.50
2022-11-05T07:44:17.536Z,99104.19
2022-11-05T07:47:02.354Z,99098.06
2022-11-05T07:49:47.287Z,99099.00
2022-11-05T07:52:32.739Z,99097.41
2022-11-05T07:55:19.317Z,99102.47
2022-11-05T07:58:03.980Z,99100.69
2022-11-05T08:00:49.013Z,99099.06
2022-11-05T08:03:34.405Z,99097.63
2022-11-05T08:06:19.292Z,99114.34
2022-11-05T08:09:04.333Z,99124.81
2022-11-05T08:11:52.827Z,99125.44
2022-11-05T08:14:37.720Z,99125.63
2022-11-05T08:17:22.779Z,99125.84
2022-11-05T08:20:08.494Z,99123.69
2022-11-05T08:22:54.240Z,99124.50
2022-11-05T08:25:39.675Z,99126.66
2022-11-05T08:28:25.738Z,99128.59
2022-11-05T08:31:10.544Z,99133.72
2022-11-05T08:34:02.189Z,99126.59
2022-11-05T08:36:47.447Z,99117.53
2022-11-05T08:39:32.573Z,99127.34
2022-11-05T08:42:17.908Z,99121.44
2022-11-05T08:45:03.301Z,99117.47
2022-11-05T08:47:48.045Z,99121.19
2022-11-05T08:50:33.786Z,99120.81
2022-11-05T08:53:18.713Z,99114.31
2022-11-05T08:56:03.627Z,99121.03
2022-11-05T08:58:49.125Z,99132.28
2022-11-05T09:01:34.377Z,99116.47
2022-11-05T09:04:19.861Z,99121.97
2022-11-05T09:07:04.489Z,99133.38
2022-11-05T09:09:49.427Z,99125.47
2022-11-05T09:12:34.491Z,99121.47
2022-11-05T09:15:19.578Z,99122.16
2022-11-05T09:18:07.628Z,99154.81
2022-11-05T09:20:52.441Z,99153.63
2022-11-05T09:23:37.259Z,99149.72
2022-11-05T09:26:22.343Z,99165.19
2022-11-05T09:29:11.653Z,99167.75
2022-11-05T09:31:58.941Z,99160.41
2022-11-05T09:34:44.367Z,99150.31
2022-11-05T09:37:29.159Z,99148.34
2022-11-05T09:40:17.551Z,99139.19
2022-11-05T09:43:03.871Z,99137.09
2022-11-05T09:45:53.419Z,99123.44
2022-11-05T09:48:39.534Z,99117.47
2022-11-05T09:51:24.488Z,99112.91
2022-11-05T09:54:11.415Z,99128.88
2022-11-05T09:56:55.976Z,99117.19
2022-11-05T10:00:08.906Z,99121.41
2022-11-05T10:03:13.256Z,99121.25
2022-11-05T10:06:07.786Z,99134.78
2022-11-05T10:09:01.290Z,99131.44
2022-11-05T10:12:04.116Z,99134.28
2022-11-05T10:15:49.550Z,99135.63
2022-11-05T10:18:38.799Z,99142.66
2022-11-05T10:21:44.314Z,99133.03
2022-11-05T10:24:29.328Z,99134.22
2022-11-05T10:27:24.823Z,99133.66
2022-11-05T10:30:14.675Z,99143.03
2022-11-05T10:33:02.582Z,99145.66
2022-11-05T10:35:50.571Z,99149.44
2022-11-05T10:38:35.676Z,99136.38
2022-11-05T10:41:41.893Z,99141.06
2022-11-05T10:44:37.095Z,99143.94
2022-11-05T10:47:27.988Z,99157.47
2022-11-05T10:50:33.594Z,99146.50
2022-11-05T10:53:22.784Z,99144.50
2022-11-05T10:56:28.010Z,99152.38
2022-11-05T10:59:27.753Z,99146.03
2022-11-05T11:02:22.406Z,99135.38
2022-11-05T11:05:10.329Z,99142.88
2022-11-05T11:08:12.852Z,99150.56
2022-11-05T11:11:01.612Z,99136.88
2022-11-05T11:14:09.352Z,99149.13
2022-11-05T11:16:56.990Z,99142.78
2022-11-05T11:19:41.633Z,99146.16
2022-11-05T11:22:26.402Z,99146.56
2022-11-05T11:25:24.361Z,99143.66
2022-11-05T11:28:17.896Z,99140.88
2022-11-05T11:31:20.811Z,99152.50
2022-11-05T11:34:12.233Z,99149.69
2022-11-05T11:37:12.919Z,99152.88
2022-11-05T11:40:12.391Z,99155.44
2022-11-05T11:43:00.870Z,99147.94
2022-11-05T11:45:54.288Z,99150.28
2022-11-05T11:48:40.561Z,99137.47
2022-11-05T11:51:30.149Z,99153.81
2022-11-05T11:54:20.621Z,99142.09
2022-11-05T11:57:27.636Z,99158.28
2022-11-05T12:00:13.759Z,99153.94
2022-11-05T12:03:08.689Z,99153.94
2022-11-05T12:06:27.804Z,99161.00
2022-11-05T12:09:27.991Z,99171.31
2022-11-05T12:12:16.344Z,99166.63
2022-11-05T12:15:24.509Z,99160.34
2022-11-05T12:18:31.227Z,99154.84
2022-11-05T12:21:51.416Z,99153.94
2022-11-05T12:24:36.433Z,99175.03
2022-11-05T12:27:36.291Z,99183.13
2022-11-05T12:30:21.623Z,99186.34
2022-11-05T12:33:25.354Z,99176.69
2022-11-05T12:36:13.971Z,99178.50
2022-11-05T12:39:05.040Z,99177.91
2022-11-05T12:41:52.726Z,99175.34
2022-11-05T12:44:43.692Z,99175.94
2022-11-05T12:47:28.543Z,99171.38
2022-11-05T12:50:50.515Z,99180.19
2022-11-05T12:53:53.060Z,99173.50
2022-11-05T12:57:02.934Z,99178.78
2022-11-05T13:00:12.485Z,99177.16
2022-11-05T13:03:15.916Z,99181.28
2022-11-05T13:06:07.136Z,99182.09
2022-11-05T13:09:01.748Z,99177.16
2022-11-05T13:12:04.513Z,99199.69
2022-11-05T13:15:21.304Z,99207.03
2022-11-05T13:18:13.866Z,99207.06
2022-11-05T13:21:04.752Z,99210.28
2022-11-05T13:24:18.231Z,99221.75
2022-11-05T13:27:17.733Z,99214.44
2022-11-05T13:30:05.455Z,99211.31
2022-11-05T13:33:03.519Z,99209.72
2022-11-05T13:36:11.381Z,99213.66
2022-11-05T13:39:08.554Z,99216.44
2022-11-05T13:42:05.434Z,99213.50
2022-11-05T13:45:24.089Z,99218.84
2022-11-05T13:48:24.220Z,99211.34
2022-11-05T13:51:27.652Z,99215.91
2022-11-05T13:54:34.315Z,99215.34
2022-11-05T13:57:33.433Z,99213.75
2022-11-05T14:00:29.379Z,99199.56
2022-11-05T14:03:19.909Z,99202.34
2022-11-05T14:06:07.799Z,99207.25
2022-11-05T14:08:58.148Z,99202.34
2022-11-05T14:11:49.989Z,99213.97
2022-11-05T14:14:44.785Z,99213.97
2022-11-05T14:17:54.622Z,99223.44
2022-11-05T14:20:43.283Z,99218.31
2022-11-05T14:23:38.446Z,99221.88
2022-11-05T14:26:30.841Z,99220.50
2022-11-05T14:29:24.334Z,99223.66
2022-11-05T14:32:18.281Z,99232.91
2022-11-05T14:35:15.083Z,99229.00
2022-11-05T14:37:59.871Z,99230.97
2022-11-05T14:40:45.682Z,99234.13
2022-11-05T14:43:35.576Z,99230.41
2022-11-05T14:46:20.511Z,99229.03
2022-11-05T14:49:09.491Z,99250.75
2022-11-05T14:51:57.942Z,99253.31
2022-11-05T14:54:48.385Z,99247.97
2022-11-05T14:57:42.319Z,99257.66
2022-11-05T15:00:35.898Z,99261.63
2022-11-05T15:03:45.951Z,99264.41
2022-11-05T15:06:36.330Z,99257.09
2022-11-05T15:09:28.951Z,99260.69
2022-11-05T15:12:52.512Z,99261.88
2022-11-05T15:15:43.875Z,99264.06
2022-11-05T15:18:34.486Z,99264.84
2022-11-05T15:21:20.890Z,99261.91
2022-11-05T15:24:07.804Z,99266.44
2022-11-05T15:27:00.655Z,99248.91
2022-11-05T15:29:45.642Z,99257.78
2022-11-05T15:32:35.896Z,99259.97
2022-11-05T15:35:28.920Z,99256.44
2022-11-05T15:38:29.772Z,99254.06
2022-11-05T15:41:23.684Z,99263.72
2022-11-05T15:44:27.569Z,99254.66
2022-11-05T15:47:18.217Z,99251.31
2022-11-05T15:50:13.090Z,99269.25
2022-11-05T15:53:20.636Z,99264.75
2022-11-05T15:56:09.918Z,99276.59
2022-11-05T15:59:00.352Z,99271.66
2022-11-05T16:01:48.347Z,99275.22
2022-11-05T16:04:34.358Z,99280.13
2022-11-05T16:07:19.276Z,99282.69
2022-11-05T16:10:10.032Z,99273.00
2022-11-05T16:13:37.106Z,99261.00
2022-11-05T16:16:33.221Z,99279.72
2022-11-05T16:19:39.821Z,99271.63
2022-11-05T16:22:42.967Z,99275.97
2022-11-05T16:25:39.559Z,99275.00
2022-11-05T16:28:29.508Z,99276.75
2022-11-05T16:31:14.375Z,99280.13
2022-11-05T16:33:59.576Z,99286.81
2022-11-05T16:36:44.428Z,99285.25
2022-11-05T16:39:29.377Z,99293.91
2022-11-05T16:42:36.544Z,99291.13
2022-11-05T16:45:24.480Z,99299.22
2022-11-05T16:48:11.965Z,99305.13
2022-11-05T16:50:57.128Z,99303.38
2022-11-05T16:53:42.367Z,99306.50
2022-11-05T16:56:28.147Z,99299.00
2022-11-05T16:59:13.168Z,99318.91
2022-11-05T17:01:58.512Z,99313.97
2022-11-05T17:04:43.345Z,99318.53
2022-11-05T17:07:27.999Z,99319.28
2022-11-05T17:10:13.303Z,99327.19
2022-11-05T17:12:57.842Z,99323.66
2022-11-05T17:15:44.975Z,99338.59
2022-11-05T17:18:29.882Z,99324.41
2022-11-05T17:21:14.835Z,99341.97
2022-11-05T17:23:59.512Z,99331.69
2022-11-05T17:26:44.501Z,99338.00
2022-11-05T17:29:29.445Z,99337.81
2022-11-05T17:32:14.272Z,99338.38
2022-11-05T17:34:59.297Z,99335.81
2022-11-05T17:37:44.462Z,99333.25
2022-11-05T17:40:29.759Z,99330.50
2022-11-05T17:43:15.293Z,99320.03
2022-11-05T17:46:04.565Z,99323.16
2022-11-05T17:48:49.427Z,99324.75
2022-11-05T17:51:34.441Z,99336.38
2022-11-05T17:54:19.351Z,99347.03
2022-11-05T17:57:05.148Z,99337.34
2022-11-05T17:59:49.594Z,99335.56
2022-11-05T18:02:34.872Z,99333.34
2022-11-05T18:05:21.208Z,99338.31
2022-11-05T18:08:07.026Z,99338.88
2022-11-05T18:10:52.260Z,99339.44
2022-11-05T18:13:37.102Z,99341.03
2022-11-05T18:16:22.250Z,99340.41
2022-11-05T18:19:07.243Z,99341.78
2022-11-05T18:21:53.146Z,99336.88
2022-11-05T18:24:38.176Z,99339.59
2022-11-05T18:27:27.047Z,99339.59
2022-11-05T18:30:14.667Z,99336.81
2022-11-05T18:32:59.520Z,99345.53
2022-11-05T18:35:44.833Z,99343.53
2022-11-05T18:38:29.650Z,99345.13
2022-11-05T18:41:15.957Z,99352.59
2022-11-05T18:44:02.561Z,99344.91
2022-11-05T18:47:03.938Z,99352.38
2022-11-05T18:49:48.636Z,99345.88
2022-11-05T18:52:33.746Z,99347.84
2022-11-05T18:55:18.959Z,99355.34
2022-11-05T18:58:03.554Z,99360.47
2022-11-05T19:00:48.539Z,99365.59
2022-11-05T19:03:33.549Z,99363.03
2022-11-05T19:06:18.404Z,99370.72
2022-11-05T19:09:04.857Z,99370.50
2022-11-05T19:11:50.315Z,99373.28
2022-11-05T19:14:35.517Z,99375.88
2022-11-05T19:17:20.247Z,99369.75
2022-11-05T19:20:06.611Z,99382.16
2022-11-05T19:22:51.334Z,99379.22
2022-11-05T19:25:37.348Z,99389.50
2022-11-05T19:28:22.812Z,99383.94
2022-11-05T19:31:14.284Z,99382.59
2022-11-05T19:34:02.407Z,99381.56
2022-11-05T19:36:47.130Z,99378.22
2022-11-05T19:39:32.255Z,99383.16
2022-11-05T19:42:17.017Z,99386.69
2022-11-05T19:45:23.066Z,99384.13
2022-11-05T19:48:07.628Z,99388.28
2022-11-05T19:50:52.906Z,99386.69
2022-11-05T19:53:38.466Z,99387.72
2022-11-05T19:56:26.184Z,99388.28
2022-11-05T19:59:11.423Z,99394.22
2022-11-05T20:01:56.212Z,99389.28
2022-11-05T20:04:41.087Z,99395.78
2022-11-05T20:07:26.743Z,99391.84
2022-11-05T20:10:11.360Z,99403.69
2022-11-05T20:12:56.322Z,99405.25
2022-11-05T20:15:41.262Z,99403.69
2022-11-05T20:18:27.133Z,99403.13
2022-11-05T20:21:11.641Z,99408.59
2022-11-05T20:23:57.066Z,99406.25
2022-11-05T20:26:42.291Z,99406.81
2022-11-05T20:29:34.732Z,99408.59
2022-11-05T20:32:20.115Z,99400.91
2022-11-05T20:35:05.410Z,99403.69
2022-11-05T20:37:53.996Z,99404.47
2022-11-05T20:40:39.293Z,99409.41
2022-11-05T20:43:29.150Z,99408.59
2022-11-05T20:46:17.583Z,99399.34
2022-11-05T20:49:02.757Z,99399.38
2022-11-05T20:51:47.547Z,99406.50
2022-11-05T20:54:32.473Z,99395.25
2022-11-05T20:57:17.432Z,99405.75
2022-11-05T21:00:06.467Z,99412.06
2022-11-05T21:02:51.338Z,99392.31
2022-11-05T21:05:36.026Z,99398.81
2022-11-05T21:08:21.857Z,99399.19
2022-11-05T21:11:06.704Z,99400.38
2022-11-05T21:13:51.532Z,99404.88
2022-11-05T21:16:36.415Z,99401.31
2022-11-05T21:19:23.328Z,99403.69
2022-11-05T21:22:07.937Z,99406.81
2022-11-05T21:24:52.834Z,99395.59
2022-11-05T21:27:43.292Z,99394.78
2022-11-05T21:30:28.286Z,99393.19
2022-11-05T21:33:14.835Z,99399.69
2022-11-05T21:36:08.929Z,99409.00
2022-11-05T21:38:54.085Z,99393.00
2022-11-05T21:41:39.320Z,99405.84
2022-11-05T21:44:24.445Z,99398.16
2022-11-05T21:47:09.341Z,99405.06
2022-11-05T21:49:54.174Z,99400.72
2022-11-05T21:52:57.974Z,99399.69
2022-11-05T21:56:01.411Z,99406.44
2022-11-05T21:59:04.873Z,99392.41
2022-11-05T22:01:50.563Z,99397.34
2022-11-05T22:04:38.103Z,99401.91
2022-11-05T22:07:32.037Z,99390.28
2022-11-05T22:10:19.066Z,99400.53
2022-11-05T22:13:03.755Z,99407.44
2022-11-05T22:15:55.938Z,99403.31
2022-11-05T22:18:40.800Z,99401.53
2022-11-05T22:21:25.722Z,99408.44
2022-11-05T22:24:10.898Z,99409.22
2022-11-05T22:26:55.969Z,99419.28
2022-11-05T22:29:41.004Z,99416.13
2022-11-05T22:32:26.104Z,99420.84
2022-11-05T22:35:10.769Z,99409.22
2022-11-05T22:37:55.636Z,99414.13
2022-11-05T22:40:40.834Z,99419.50
2022-11-05T22:43:25.920Z,99418.28
2022-11-05T22:46:14.212Z,99420.06
2022-11-05T22:48:59.704Z,99414.34
2022-11-05T22:51:45.050Z,99419.28
2022-11-05T22:54:33.853Z,99415.16
2022-11-05T22:57:21.570Z,99424.22
2022-11-05T23:00:14.287Z,99422.22
2022-11-05T23:02:59.100Z,99428.72
2022-11-05T23:05:43.916Z,99424.78
2022-11-05T23:08:47.348Z,99423.03
2022-11-05T23:11:34.947Z,99427.53
2022-11-05T23:14:20.228Z,99418.06
2022-11-05T23:17:23.088Z,99420.22
2022-11-05T23:20:34.517Z,99427.91
2022-11-05T23:23:38.114Z,99427.69
2022-11-05T23:26:41.282Z,99425.31
2022-11-05T23:29:26.730Z,99424.72
2022-11-05T23:32:23.755Z,99424.50
2022-11-05T23:35:08.865Z,99426.84
2022-11-05T23:38:12.554Z,99422.09
2022-11-05T23:41:20.173Z,99418.72
2022-11-05T23:44:40.243Z,99421.69
2022-11-05T23:47:43.447Z,99426.41
2022-11-05T23:50:33.105Z,99428.75
2022-11-05T23:53:20.561Z,99419.66
2022-11-05T23:56:10.495Z,99417.03
2022-11-05T23:58:55.045Z,99421.78
